createdAt,value
2022-12-15T00:02:02.714Z,86.67
2022-12-15T00:04:29.286Z,87.22
2022-12-15T00:06:55.839Z,87.10
2022-12-15T00:09:29.321Z,87.21
2022-12-15T00:11:57.461Z,87.60
2022-12-15T00:14:23.991Z,87.77
2022-12-15T00:16:50.552Z,87.71
2022-12-15T00:19:17.055Z,87.52
2022-12-15T00:21:43.684Z,87.44
2022-12-15T00:24:10.236Z,86.75
2022-12-15T00:26:38.209Z,86.63
2022-12-15T00:29:04.936Z,86.70
2022-12-15T00:31:31.665Z,86.80
2022-12-15T00:33:58.190Z,87.33
2022-12-15T00:36:24.776Z,87.26
2022-12-15T00:38:51.277Z,87.33
2022-12-15T00:41:18.571Z,87.61
2022-12-15T00:43:46.934Z,87.66
2022-12-15T00:46:14.004Z,88.01
2022-12-15T00:48:41.214Z,87.68
2022-12-15T00:51:08.634Z,87.74
2022-12-15T00:53:35.203Z,87.70
2022-12-15T00:56:01.880Z,87.07
2022-12-15T00:58:28.400Z,86.73
2022-12-15T01:00:56.434Z,86.76
2022-12-15T01:03:24.411Z,86.62
2022-12-15T01:05:51.139Z,86.69
2022-12-15T01:08:17.728Z,86.52
2022-12-15T01:10:44.267Z,86.83
2022-12-15T01:13:13.113Z,86.77
2022-12-15T01:15:40.394Z,86.52
2022-12-15T01:18:08.501Z,86.37
2022-12-15T01:20:35.062Z,86.27
2022-12-15T01:23:01.666Z,86.35
2022-12-15T01:25:28.293Z,86.61
2022-12-15T01:27:55.266Z,86.70
2022-12-15T01:30:23.884Z,86.70
2022-12-15T01:32:51.295Z,86.78
2022-12-15T01:35:20.669Z,86.17
2022-12-15T01:37:50.231Z,86.16
2022-12-15T01:40:19.533Z,86.13
2022-12-15T01:42:46.623Z,85.90
2022-12-15T01:45:45.566Z,85.69
2022-12-15T01:48:14.753Z,85.66
2022-12-15T01:50:45.800Z,85.46
2022-12-15T01:53:14.862Z,85.93
2022-12-15T01:55:44.130Z,86.12
2022-12-15T01:58:16.920Z,85.88
2022-12-15T02:00:43.812Z,86.13
2022-12-15T02:03:11.929Z,86.17
2022-12-15T02:05:39.991Z,86.30
2022-12-15T02:08:09.789Z,85.28
2022-12-15T02:10:50.549Z,85.42
2022-12-15T02:13:24.160Z,85.82
2022-12-15T02:15:56.883Z,85.95
2022-12-15T02:18:31.879Z,85.80
2022-12-15T02:21:02.972Z,85.70
2022-12-15T02:24:07.723Z,85.12
2022-12-15T02:27:10.511Z,85.44
2022-12-15T02:30:13.348Z,85.57
2022-12-15T02:32:46.310Z,85.61
2022-12-15T02:35:19.167Z,86.03
2022-12-15T02:37:49.793Z,85.81
2022-12-15T02:40:16.777Z,86.27
2022-12-15T02:42:48.752Z,86.08
2022-12-15T02:45:21.357Z,86.42
2022-12-15T02:47:56.613Z,86.59
2022-12-15T02:50:39.631Z,86.97
2022-12-15T02:53:20.870Z,86.99
2022-12-15T02:55:53.526Z,86.72
2022-12-15T02:58:27.069Z,87.02
2022-12-15T03:01:01.159Z,86.86
2022-12-15T03:03:30.943Z,87.08
2022-12-15T03:05:58.039Z,86.99
2022-12-15T03:08:24.562Z,86.84
2022-12-15T03:10:53.096Z,86.54
2022-12-15T03:13:22.250Z,86.79
2022-12-15T03:15:48.737Z,86.57
2022-12-15T03:18:16.859Z,86.42
2022-12-15T03:20:43.375Z,86.70
2022-12-15T03:23:09.881Z,86.61
2022-12-15T03:25:36.380Z,86.74
2022-12-15T03:28:02.913Z,86.29
2022-12-15T03:30:29.478Z,85.87
2022-12-15T03:32:55.977Z,85.56
2022-12-15T03:35:23.904Z,85.50
2022-12-15T03:37:50.423Z,85.71
2022-12-15T03:40:17.046Z,85.50
2022-12-15T03:42:44.402Z,85.40
2022-12-15T03:45:10.916Z,85.53
2022-12-15T03:47:40.552Z,85.63
2022-12-15T03:50:07.906Z,85.63
2022-12-15T03:52:35.987Z,85.40
2022-12-15T03:55:03.121Z,85.34
2022-12-15T03:57:29.654Z,85.58
2022-12-15T03:59:56.172Z,85.63
2022-12-15T04:02:22.820Z,85.45
2022-12-15T04:04:49.441Z,85.82
2022-12-15T04:07:15.983Z,85.72
2022-12-15T04:09:43.921Z,86.21
2022-12-15T04:12:11.446Z,86.52
2022-12-15T04:14:37.946Z,86.36
2022-12-15T04:17:04.691Z,86.58
2022-12-15T04:19:31.212Z,86.34
2022-12-15T04:21:57.727Z,86.21
2022-12-15T04:24:24.241Z,86.44
2022-12-15T04:26:52.073Z,86.50
2022-12-15T04:29:18.756Z,86.34
2022-12-15T04:31:45.444Z,86.43
2022-12-15T04:34:14.470Z,86.59
2022-12-15T04:36:43.810Z,86.58
2022-12-15T04:39:10.419Z,86.29
2022-12-15T04:41:37.073Z,86.75
2022-12-15T04:44:05.957Z,86.96
2022-12-15T04:46:32.564Z,86.96
2022-12-15T04:48:59.166Z,86.92
2022-12-15T04:51:25.791Z,87.25
2022-12-15T04:53:52.314Z,87.05
2022-12-15T04:56:19.052Z,86.88
2022-12-15T04:58:46.569Z,86.75
2022-12-15T05:01:14.606Z,87.02
2022-12-15T05:03:41.276Z,86.72
2022-12-15T05:06:07.854Z,86.80
2022-12-15T05:08:34.394Z,86.72
2022-12-15T05:11:00.925Z,86.75
2022-12-15T05:13:27.562Z,86.55
2022-12-15T05:15:54.316Z,87.08
2022-12-15T05:18:22.259Z,86.50
2022-12-15T05:20:51.515Z,86.53
2022-12-15T05:23:18.073Z,86.38
2022-12-15T05:25:45.229Z,85.98
2022-12-15T05:28:11.788Z,86.13
2022-12-15T05:30:38.506Z,86.15
2022-12-15T05:33:05.549Z,86.44
2022-12-15T05:35:33.402Z,85.60
2022-12-15T05:37:59.953Z,86.40
2022-12-15T05:40:26.477Z,86.38
2022-12-15T05:42:52.996Z,86.69
2022-12-15T05:45:20.971Z,85.50
2022-12-15T05:47:50.582Z,85.64
2022-12-15T05:50:17.067Z,86.33
2022-12-15T05:52:49.149Z,86.42
2022-12-15T05:55:16.254Z,87.17
2022-12-15T05:57:42.830Z,86.84
2022-12-15T06:00:10.441Z,86.93
2022-12-15T06:02:39.691Z,86.80
2022-12-15T06:05:07.558Z,87.12
2022-12-15T06:07:34.398Z,87.33
2022-12-15T06:10:02.490Z,87.47
2022-12-15T06:12:29.138Z,87.57
2022-12-15T06:14:55.723Z,87.53
2022-12-15T06:17:22.227Z,87.48
2022-12-15T06:19:48.752Z,87.43
2022-12-15T06:22:15.283Z,87.29
2022-12-15T06:24:41.885Z,87.26
2022-12-15T06:27:09.751Z,87.23
2022-12-15T06:29:36.678Z,87.20
2022-12-15T06:32:03.340Z,86.52
2022-12-15T06:34:29.911Z,85.97
2022-12-15T06:36:56.404Z,86.24
2022-12-15T06:39:23.006Z,86.29
2022-12-15T06:41:49.521Z,86.61
2022-12-15T06:44:17.528Z,86.33
2022-12-15T06:46:44.317Z,86.22
2022-12-15T06:49:10.999Z,86.69
2022-12-15T06:51:37.578Z,86.16
2022-12-15T06:54:04.418Z,86.26
2022-12-15T06:56:34.588Z,86.50
2022-12-15T06:59:02.242Z,85.64
2022-12-15T07:01:30.921Z,85.76
2022-12-15T07:03:59.118Z,86.08
2022-12-15T07:06:25.963Z,85.80
2022-12-15T07:08:54.119Z,86.15
2022-12-15T07:11:21.918Z,86.06
2022-12-15T07:13:49.016Z,84.77
2022-12-15T07:16:15.622Z,85.12
2022-12-15T07:18:43.631Z,84.79
2022-12-15T07:21:10.550Z,84.65
2022-12-15T07:23:53.989Z,85.15
2022-12-15T07:26:22.347Z,85.38
2022-12-15T07:28:49.441Z,85.74
2022-12-15T07:31:16.202Z,84.82
2022-12-15T07:33:44.391Z,85.01
2022-12-15T07:36:11.162Z,83.64
2022-12-15T07:38:37.802Z,83.71
2022-12-15T07:41:06.387Z,83.69
2022-12-15T07:43:33.589Z,83.27
2022-12-15T07:46:01.233Z,82.88
2022-12-15T07:48:28.068Z,82.74
2022-12-15T07:50:59.686Z,82.58
2022-12-15T07:53:31.569Z,82.47
2022-12-15T07:56:07.390Z,82.43
2022-12-15T07:58:36.035Z,82.43
2022-12-15T08:01:04.577Z,82.74
2022-12-15T08:03:31.918Z,82.99
2022-12-15T08:06:04.365Z,82.35
2022-12-15T08:08:31.495Z,82.50
2022-12-15T08:10:58.319Z,83.22
2022-12-15T08:13:52.890Z,83.15
2022-12-15T08:16:11.925Z,82.84
2022-12-15T08:18:38.879Z,83.55
2022-12-15T08:21:08.938Z,83.64
2022-12-15T08:23:35.762Z,83.01
2022-12-15T08:26:03.462Z,81.56
2022-12-15T08:28:30.183Z,81.63
2022-12-15T08:31:02.419Z,80.73
2022-12-15T08:33:29.728Z,80.20
2022-12-15T08:35:58.125Z,80.35
2022-12-15T08:38:26.121Z,80.59
2022-12-15T08:40:52.650Z,79.92
2022-12-15T08:43:19.234Z,79.66
2022-12-15T08:45:45.836Z,80.57
2022-12-15T08:48:12.667Z,80.94
2022-12-15T08:50:43.117Z,80.61
2022-12-15T08:53:41.477Z,81.01
2022-12-15T08:56:02.353Z,80.57
2022-12-15T08:58:29.031Z,79.81
2022-12-15T09:01:00.143Z,80.08
2022-12-15T09:03:27.064Z,80.04
2022-12-15T09:05:53.604Z,79.34
2022-12-15T09:08:20.140Z,78.65
2022-12-15T09:10:46.686Z,79.07
2022-12-15T09:13:20.463Z,79.45
2022-12-15T09:16:11.214Z,79.48
2022-12-15T09:18:38.748Z,79.32
2022-12-15T09:21:07.394Z,79.89
2022-12-15T09:23:35.665Z,79.06
2022-12-15T09:26:04.498Z,79.69
2022-12-15T09:28:32.577Z,79.80
2022-12-15T09:31:02.380Z,79.36
2022-12-15T09:33:29.350Z,78.59
2022-12-15T09:35:56.201Z,79.36
2022-12-15T09:38:23.018Z,77.61
2022-12-15T09:40:49.952Z,78.36
2022-12-15T09:43:46.249Z,78.32
2022-12-15T09:46:21.099Z,78.79
2022-12-15T09:48:49.607Z,79.41
2022-12-15T09:51:18.506Z,77.46
2022-12-15T09:53:54.653Z,77.58
2022-12-15T09:56:29.139Z,78.11
2022-12-15T09:59:03.369Z,78.06
2022-12-15T10:01:42.694Z,77.62
2022-12-15T10:04:15.499Z,77.26
2022-12-15T10:06:50.752Z,77.16
2022-12-15T10:09:20.234Z,77.32
2022-12-15T10:11:51.059Z,76.81
2022-12-15T10:14:28.419Z,77.87
2022-12-15T10:17:05.249Z,77.28
2022-12-15T10:19:39.094Z,75.95
2022-12-15T10:22:10.833Z,75.82
2022-12-15T10:25:08.552Z,75.85
2022-12-15T10:27:43.381Z,76.04
2022-12-15T10:30:12.031Z,74.30
2022-12-15T10:32:51.969Z,73.43
2022-12-15T10:35:22.223Z,74.20
2022-12-15T10:37:50.216Z,74.03
2022-12-15T10:40:19.391Z,74.08
2022-12-15T10:42:48.446Z,73.01
2022-12-15T10:45:35.501Z,72.65
2022-12-15T10:48:04.049Z,73.23
2022-12-15T10:50:30.728Z,73.07
2022-12-15T10:52:57.387Z,72.73
2022-12-15T10:55:37.594Z,73.76
2022-12-15T10:58:15.291Z,73.47
2022-12-15T11:00:42.209Z,74.39
2022-12-15T11:03:22.366Z,73.54
2022-12-15T11:05:52.289Z,73.01
2022-12-15T11:08:19.856Z,73.34
2022-12-15T11:10:50.862Z,73.49
2022-12-15T11:13:19.284Z,72.77
2022-12-15T11:15:50.857Z,72.25
2022-12-15T11:18:38.665Z,72.05
2022-12-15T11:21:11.490Z,72.80
2022-12-15T11:23:50.413Z,72.85
2022-12-15T11:26:30.554Z,72.36
2022-12-15T11:29:02.003Z,72.35
2022-12-15T11:31:35.006Z,71.82
2022-12-15T11:34:03.498Z,71.91
2022-12-15T11:36:44.138Z,71.17
2022-12-15T11:39:19.585Z,71.47
2022-12-15T11:41:57.238Z,72.06
2022-12-15T11:44:27.531Z,71.72
2022-12-15T11:47:07.226Z,71.31
2022-12-15T11:49:58.339Z,71.10
2022-12-15T11:52:37.157Z,71.07
2022-12-15T11:55:14.903Z,71.15
2022-12-15T11:57:57.441Z,70.77
2022-12-15T12:00:24.129Z,70.96
2022-12-15T12:03:12.534Z,71.25
2022-12-15T12:06:04.848Z,69.53
2022-12-15T12:08:52.568Z,69.20
2022-12-15T12:11:25.920Z,68.92
2022-12-15T12:14:14.507Z,68.36
2022-12-15T12:16:51.248Z,68.45
2022-12-15T12:19:23.054Z,67.72
2022-12-15T12:21:57.791Z,67.62
2022-12-15T12:24:29.920Z,67.29
2022-12-15T12:27:01.002Z,68.03
2022-12-15T12:29:31.323Z,68.20
2022-12-15T12:32:05.421Z,67.28
2022-12-15T12:34:40.827Z,67.53
2022-12-15T12:37:21.029Z,67.12
2022-12-15T12:39:51.702Z,67.40
2022-12-15T12:42:25.709Z,68.08
2022-12-15T12:44:52.557Z,67.90
2022-12-15T12:47:24.095Z,67.20
2022-12-15T12:49:54.651Z,67.35
2022-12-15T12:52:27.818Z,66.94
2022-12-15T12:54:59.054Z,66.72
2022-12-15T12:57:37.044Z,66.00
2022-12-15T13:00:21.696Z,66.30
2022-12-15T13:03:09.202Z,66.14
2022-12-15T13:05:37.420Z,65.22
2022-12-15T13:08:44.256Z,64.14
2022-12-15T13:11:50.586Z,64.70
2022-12-15T13:17:26.396Z,64.32
2022-12-15T13:20:22.489Z,63.96
2022-12-15T13:22:50.493Z,62.86
2022-12-15T13:25:38.472Z,63.88
2022-12-15T13:28:39.617Z,63.86
2022-12-15T13:31:26.446Z,64.52
2022-12-15T13:33:59.414Z,64.05
2022-12-15T13:36:55.176Z,64.18
2022-12-15T13:39:47.296Z,64.74
2022-12-15T13:45:51.160Z,65.23
2022-12-15T13:48:34.809Z,65.28
2022-12-15T13:51:24.099Z,64.86
2022-12-15T13:53:55.564Z,65.66
2022-12-15T13:56:35.439Z,66.00
2022-12-15T13:59:12.355Z,66.22
2022-12-15T14:01:48.562Z,66.79
2022-12-15T14:04:17.627Z,66.03
2022-12-15T14:06:47.705Z,64.75
2022-12-15T14:09:22.458Z,65.70
2022-12-15T14:11:53.559Z,65.64
2022-12-15T14:14:26.646Z,65.65
2022-12-15T14:16:58.392Z,64.99
2022-12-15T14:19:25.957Z,65.24
2022-12-15T14:21:54.437Z,64.85
2022-12-15T14:24:38.642Z,64.39
2022-12-15T14:27:06.611Z,64.37
2022-12-15T14:29:34.784Z,65.49
2022-12-15T14:32:02.312Z,66.59
2022-12-15T14:34:33.536Z,67.11
2022-12-15T14:37:03.394Z,67.55
2022-12-15T14:39:35.200Z,67.86
2022-12-15T14:42:02.565Z,68.43
2022-12-15T14:44:38.122Z,68.45
2022-12-15T14:47:19.861Z,69.10
2022-12-15T14:49:46.994Z,69.09
2022-12-15T14:52:25.628Z,69.34
2022-12-15T14:54:57.536Z,70.10
2022-12-15T14:57:26.121Z,70.80
2022-12-15T14:59:53.045Z,71.06
2022-12-15T15:02:24.361Z,70.78
2022-12-15T15:03:10.789Z,64.86
2022-12-15T15:03:12.027Z,64.62
2022-12-15T15:04:59.091Z,70.44
2022-12-15T15:07:27.270Z,70.59
2022-12-15T15:09:54.347Z,71.56
2022-12-15T15:12:23.459Z,71.12
2022-12-15T15:14:53.656Z,71.04
2022-12-15T15:17:25.498Z,71.01
2022-12-15T15:19:56.544Z,71.24
2022-12-15T15:22:34.311Z,70.88
2022-12-15T15:25:01.195Z,70.82
2022-12-15T15:27:35.633Z,71.19
2022-12-15T15:30:21.594Z,71.60
2022-12-15T15:33:02.137Z,73.15
2022-12-15T15:35:31.168Z,74.23
2022-12-15T15:38:04.166Z,74.42
2022-12-15T15:40:30.745Z,74.77
2022-12-15T15:42:57.276Z,74.33
2022-12-15T15:45:23.944Z,74.43
2022-12-15T15:47:52.751Z,74.28
2022-12-15T15:50:28.705Z,74.30
2022-12-15T15:52:56.205Z,74.77
2022-12-15T15:55:27.570Z,75.15
2022-12-15T15:57:54.232Z,75.97
2022-12-15T16:00:24.008Z,76.43
2022-12-15T16:02:51.164Z,76.63
2022-12-15T16:05:18.212Z,76.78
2022-12-15T16:07:46.862Z,76.63
2022-12-15T16:10:15.597Z,77.07
2022-12-15T16:12:45.193Z,76.96
2022-12-15T16:15:17.155Z,77.15
2022-12-15T16:17:43.937Z,77.36
2022-12-15T16:20:12.638Z,77.71
2022-12-15T16:22:40.722Z,77.95
2022-12-15T16:25:14.615Z,77.95
2022-12-15T16:27:41.530Z,78.20
2022-12-15T16:30:15.617Z,78.64
2022-12-15T16:32:42.354Z,78.91
2022-12-15T16:35:09.250Z,79.15
2022-12-15T16:37:39.489Z,79.26
2022-12-15T16:40:18.425Z,79.01
2022-12-15T16:42:51.142Z,79.22
2022-12-15T16:45:20.179Z,79.44
2022-12-15T16:47:47.145Z,80.28
2022-12-15T16:50:15.157Z,80.65
2022-12-15T16:52:43.255Z,80.10
2022-12-15T16:55:18.820Z,79.98
2022-12-15T16:57:49.166Z,80.75
2022-12-15T17:00:19.662Z,81.08
2022-12-15T17:02:46.854Z,81.30
2022-12-15T17:05:17.757Z,81.30
2022-12-15T17:07:47.705Z,81.79
2022-12-15T17:10:21.885Z,82.11
2022-12-15T17:12:49.252Z,81.58
2022-12-15T17:15:21.678Z,81.39
2022-12-15T17:17:49.689Z,79.23
2022-12-15T17:20:29.044Z,80.32
2022-12-15T17:23:02.286Z,80.61
2022-12-15T17:26:09.365Z,81.54
2022-12-15T17:28:25.412Z,81.87
2022-12-15T17:30:52.542Z,82.33
2022-12-15T17:33:21.467Z,82.17
2022-12-15T17:35:50.352Z,82.15
2022-12-15T17:38:20.397Z,81.94
2022-12-15T17:40:50.543Z,81.16
2022-12-15T17:43:19.624Z,82.00
2022-12-15T17:45:47.041Z,82.08
2022-12-15T17:48:13.873Z,82.09
2022-12-15T17:50:40.812Z,81.55
2022-12-15T17:53:11.301Z,80.93
2022-12-15T17:55:37.989Z,81.61
2022-12-15T17:58:16.913Z,81.28
2022-12-15T18:00:49.047Z,81.21
2022-12-15T18:03:16.498Z,81.25
2022-12-15T18:05:43.381Z,82.35
2022-12-15T18:08:13.909Z,82.47
2022-12-15T18:10:41.382Z,82.54
2022-12-15T18:13:16.180Z,82.45
2022-12-15T18:15:43.395Z,82.38
2022-12-15T18:18:10.249Z,82.39
2022-12-15T18:20:36.843Z,82.20
2022-12-15T18:23:12.934Z,82.32
2022-12-15T18:25:39.667Z,82.57
2022-12-15T18:28:19.736Z,82.16
2022-12-15T18:30:47.249Z,82.57
2022-12-15T18:33:13.917Z,82.71
2022-12-15T18:35:43.131Z,82.61
2022-12-15T18:38:17.612Z,82.59
2022-12-15T18:40:46.260Z,81.97
2022-12-15T18:43:14.948Z,81.63
2022-12-15T18:45:43.725Z,81.99
2022-12-15T18:48:16.171Z,82.27
2022-12-15T18:51:02.450Z,82.50
2022-12-15T18:53:31.762Z,83.45
2022-12-15T18:56:01.034Z,83.44
2022-12-15T18:58:29.881Z,83.56
2022-12-15T19:01:04.257Z,83.52
2022-12-15T19:03:40.692Z,83.55
2022-12-15T19:06:25.328Z,83.48
2022-12-15T19:08:55.564Z,83.06
2022-12-15T19:11:28.977Z,83.20
2022-12-15T19:14:01.362Z,82.77
2022-12-15T19:16:32.389Z,82.65
2022-12-15T19:19:01.774Z,82.68
2022-12-15T19:21:33.738Z,83.11
2022-12-15T19:24:03.958Z,83.06
2022-12-15T19:26:32.151Z,83.62
2022-12-15T19:29:00.614Z,83.36
2022-12-15T19:31:40.120Z,83.63
2022-12-15T19:34:14.115Z,83.94
2022-12-15T19:36:43.773Z,83.76
2022-12-15T19:39:19.310Z,84.06
2022-12-15T19:41:48.731Z,83.99
2022-12-15T19:44:17.517Z,83.38
2022-12-15T19:46:50.417Z,82.08
2022-12-15T19:49:18.255Z,81.74
2022-12-15T19:51:48.715Z,81.01
2022-12-15T19:54:23.326Z,81.10
2022-12-15T19:56:53.698Z,81.14
2022-12-15T19:59:28.839Z,81.40
2022-12-15T20:01:57.718Z,81.13
2022-12-15T20:04:28.114Z,81.77
2022-12-15T20:06:58.110Z,82.45
2022-12-15T20:09:28.555Z,82.41
2022-12-15T20:11:56.690Z,82.25
2022-12-15T20:14:31.460Z,81.99
2022-12-15T20:17:07.605Z,82.31
2022-12-15T20:19:38.536Z,82.44
2022-12-15T20:22:13.930Z,82.33
2022-12-15T20:24:42.769Z,82.82
2022-12-15T20:27:16.896Z,83.11
2022-12-15T20:29:48.424Z,83.10
2022-12-15T20:32:21.618Z,83.50
2022-12-15T20:34:49.732Z,83.11
2022-12-15T20:37:27.517Z,83.13
2022-12-15T20:39:58.064Z,82.79
2022-12-15T20:42:27.959Z,82.67
2022-12-15T20:44:59.046Z,82.36
2022-12-15T20:47:30.178Z,82.55
2022-12-15T20:50:06.558Z,82.76
2022-12-15T20:52:34.427Z,82.49
2022-12-15T20:55:01.635Z,82.37
2022-12-15T20:57:36.635Z,82.74
2022-12-15T21:00:07.916Z,82.81
2022-12-15T21:02:42.140Z,82.34
2022-12-15T21:05:17.027Z,82.79
2022-12-15T21:07:47.496Z,82.67
2022-12-15T21:10:17.504Z,82.75
2022-12-15T21:12:48.358Z,82.64
2022-12-15T21:15:23.077Z,82.30
2022-12-15T21:18:19.831Z,82.66
2022-12-15T21:20:45.543Z,82.93
2022-12-15T21:23:20.234Z,82.75
2022-12-15T21:25:47.126Z,82.86
2022-12-15T21:28:14.128Z,82.37
2022-12-15T21:30:41.871Z,81.24
2022-12-15T21:33:10.176Z,81.28
2022-12-15T21:35:39.243Z,81.70
2022-12-15T21:38:06.726Z,82.53
2022-12-15T21:40:33.434Z,82.67
2022-12-15T21:43:04.350Z,82.71
2022-12-15T21:45:30.997Z,82.55
2022-12-15T21:47:57.492Z,82.35
2022-12-15T21:50:25.450Z,82.34
2022-12-15T21:52:52.077Z,82.08
2022-12-15T21:55:21.462Z,81.83
2022-12-15T21:57:48.538Z,81.55
2022-12-15T22:00:17.040Z,81.47
2022-12-15T22:02:44.857Z,81.17
2022-12-15T22:05:17.200Z,81.56
2022-12-15T22:07:45.285Z,81.88
2022-12-15T22:10:12.113Z,82.06
2022-12-15T22:12:40.217Z,82.19
2022-12-15T22:15:13.761Z,82.43
2022-12-15T22:17:40.387Z,82.61
2022-12-15T22:20:14.146Z,81.82
2022-12-15T22:22:40.745Z,81.63
2022-12-15T22:25:15.689Z,82.07
2022-12-15T22:27:42.913Z,81.82
2022-12-15T22:30:14.623Z,81.65
2022-12-15T22:32:41.224Z,80.87
2022-12-15T22:35:13.463Z,80.85
2022-12-15T22:37:40.318Z,81.08
2022-12-15T22:40:09.553Z,81.28
2022-12-15T22:42:36.586Z,81.20
2022-12-15T22:45:04.354Z,81.24
2022-12-15T22:47:34.333Z,81.25
2022-12-15T22:50:00.987Z,81.33
2022-12-15T22:52:27.624Z,81.18
2022-12-15T22:54:54.170Z,81.47
2022-12-15T22:57:25.887Z,81.49
2022-12-15T22:59:55.763Z,81.53
2022-12-15T23:02:22.370Z,81.30
2022-12-15T23:04:48.999Z,81.22
2022-12-15T23:07:15.569Z,81.56
2022-12-15T23:09:42.138Z,81.58
2022-12-15T23:12:08.648Z,81.80
2022-12-15T23:14:37.795Z,81.53
2022-12-15T23:17:04.345Z,81.42
2022-12-15T23:19:30.895Z,81.15
2022-12-15T23:21:57.497Z,80.61
2022-12-15T23:24:24.017Z,80.48
2022-12-15T23:26:50.543Z,80.91
2022-12-15T23:29:17.322Z,81.03
2022-12-15T23:31:45.187Z,81.22
2022-12-15T23:34:11.916Z,81.42
2022-12-15T23:36:38.432Z,81.21
2022-12-15T23:39:04.925Z,81.36
2022-12-15T23:41:31.420Z,81.30
2022-12-15T23:43:57.970Z,81.48
2022-12-15T23:46:24.529Z,81.24
2022-12-15T23:48:52.395Z,81.19
2022-12-15T23:51:20.191Z,81.19
2022-12-15T23:53:47.825Z,81.39
2022-12-15T23:56:17.117Z,80.94
2022-12-15T23:58:45.621Z,80.98
